createdAt,value
2023-05-03T00:00:53.522Z,91.83
2023-05-03T00:03:24.006Z,90.74
2023-05-03T00:05:50.757Z,90.81
2023-05-03T00:08:19.579Z,90.34
2023-05-03T00:10:48.225Z,90.45
2023-05-03T00:13:17.777Z,89.74
2023-05-03T00:15:48.799Z,90.15
2023-05-03T00:18:16.161Z,90.30
2023-05-03T00:20:42.823Z,91.02
2023-05-03T00:23:12.131Z,92.07
2023-05-03T00:25:43.214Z,92.15
2023-05-03T00:28:11.150Z,92.61
2023-05-03T00:30:37.941Z,92.26
2023-05-03T00:33:06.728Z,92.65
2023-05-03T00:35:38.206Z,92.91
2023-05-03T00:38:06.135Z,93.10
2023-05-03T00:40:33.592Z,93.71
2023-05-03T00:43:00.416Z,94.13
2023-05-03T00:48:09.167Z,94.63
2023-05-03T00:50:37.372Z,94.61
2023-05-03T00:53:05.334Z,94.92
2023-05-03T00:55:42.403Z,95.45
2023-05-03T00:58:09.299Z,96.83
2023-05-03T01:00:39.197Z,96.10
2023-05-03T01:03:17.169Z,97.55
2023-05-03T01:06:02.676Z,96.57
2023-05-03T01:08:42.281Z,96.89
2023-05-03T01:11:19.932Z,97.15
2023-05-03T01:14:09.184Z,98.24
2023-05-03T01:16:54.768Z,98.41
2023-05-03T01:22:47.903Z,99.51
2023-05-03T01:25:17.467Z,100.00
2023-05-03T01:27:45.607Z,99.97
2023-05-03T01:30:14.495Z,100.00
2023-05-03T01:33:01.754Z,100.00
2023-05-03T01:35:52.645Z,100.00
2023-05-03T01:38:23.376Z,100.00
2023-05-03T01:40:55.958Z,100.00
2023-05-03T01:43:25.239Z,100.00
2023-05-03T01:45:52.821Z,100.00
2023-05-03T01:48:24.353Z,100.00
2023-05-03T01:50:52.243Z,100.00
2023-05-03T01:53:21.100Z,100.00
2023-05-03T01:55:47.763Z,100.00
2023-05-03T01:58:14.308Z,100.00
2023-05-03T02:00:41.546Z,100.00
2023-05-03T02:03:08.611Z,100.00
2023-05-03T02:05:35.376Z,100.00
2023-05-03T02:08:04.729Z,100.00
2023-05-03T02:10:35.354Z,100.00
2023-05-03T02:13:06.390Z,100.00
2023-05-03T02:15:33.398Z,100.00
2023-05-03T02:18:03.320Z,100.00
2023-05-03T02:20:35.743Z,100.00
2023-05-03T02:25:52.600Z,100.00
2023-05-03T02:28:20.895Z,100.00
2023-05-03T02:30:48.070Z,100.00
2023-05-03T02:33:14.799Z,100.00
2023-05-03T02:35:41.485Z,100.00
2023-05-03T02:38:10.316Z,100.00
2023-05-03T02:40:42.564Z,100.00
2023-05-03T02:43:11.091Z,100.00
2023-05-03T02:45:42.572Z,100.00
2023-05-03T02:48:15.660Z,100.00
2023-05-03T02:50:44.156Z,100.00
2023-05-03T02:53:11.962Z,100.00
2023-05-03T02:55:47.279Z,100.00
2023-05-03T02:58:17.193Z,100.00
2023-05-03T03:00:52.797Z,100.00
2023-05-03T03:03:32.608Z,100.00
2023-05-03T03:06:01.507Z,100.00
2023-05-03T03:08:28.114Z,100.00
2023-05-03T03:10:57.730Z,100.00
2023-05-03T03:13:28.509Z,100.00
2023-05-03T03:15:55.189Z,100.00
2023-05-03T03:18:22.455Z,100.00
2023-05-03T03:20:49.107Z,100.00
2023-05-03T03:23:17.650Z,100.00
2023-05-03T03:25:55.760Z,100.00
2023-05-03T03:28:25.222Z,100.00
2023-05-03T03:30:52.106Z,100.00
2023-05-03T03:33:29.483Z,100.00
2023-05-03T03:35:56.021Z,100.00
2023-05-03T03:38:23.375Z,100.00
2023-05-03T03:41:03.447Z,100.00
2023-05-03T03:43:30.842Z,100.00
2023-05-03T03:45:57.693Z,100.00
2023-05-03T03:48:25.292Z,100.00
2023-05-03T03:50:53.471Z,100.00
2023-05-03T03:53:22.814Z,100.00
2023-05-03T03:55:50.774Z,100.00
2023-05-03T03:58:17.614Z,100.00
2023-05-03T04:00:48.302Z,100.00
2023-05-03T04:03:15.989Z,100.00
2023-05-03T04:05:42.865Z,100.00
2023-05-03T04:08:09.898Z,100.00
2023-05-03T04:10:36.507Z,100.00
2023-05-03T04:13:03.455Z,100.00
2023-05-03T04:15:32.720Z,100.00
2023-05-03T04:17:59.455Z,100.00
2023-05-03T04:20:27.248Z,100.00
2023-05-03T04:23:01.327Z,100.00
2023-05-03T04:25:31.381Z,100.00
2023-05-03T04:27:59.445Z,100.00
2023-05-03T04:30:27.208Z,100.00
2023-05-03T04:32:55.654Z,100.00
2023-05-03T04:35:23.351Z,100.00
2023-05-03T04:37:51.515Z,100.00
2023-05-03T04:40:20.099Z,100.00
2023-05-03T04:42:47.950Z,100.00
2023-05-03T04:45:14.862Z,100.00
2023-05-03T04:47:44.813Z,100.00
2023-05-03T04:50:13.415Z,100.00
2023-05-03T04:52:40.674Z,100.00
2023-05-03T04:55:11.065Z,100.00
2023-05-03T04:57:43.012Z,100.00
2023-05-03T05:00:12.097Z,100.00
2023-05-03T05:02:38.786Z,100.00
2023-05-03T05:05:14.779Z,100.00
2023-05-03T05:07:42.285Z,100.00
2023-05-03T05:10:11.712Z,100.00
2023-05-03T05:12:44.927Z,100.00
2023-05-03T05:15:18.060Z,100.00
2023-05-03T05:17:50.746Z,100.00
2023-05-03T05:25:40.298Z,98.89
2023-05-03T05:28:07.703Z,99.12
2023-05-03T05:30:35.615Z,98.80
2023-05-03T05:33:02.588Z,95.68
2023-05-03T05:35:30.126Z,94.30
2023-05-03T05:37:57.432Z,91.69
2023-05-03T05:40:26.457Z,93.19
2023-05-03T05:45:36.345Z,94.30
2023-05-03T05:48:05.929Z,92.28
2023-05-03T05:50:32.661Z,91.52
2023-05-03T05:52:59.387Z,89.78
2023-05-03T05:55:25.986Z,90.27
2023-05-03T06:04:26.913Z,90.34
2023-05-03T06:06:57.450Z,88.38
2023-05-03T06:09:25.241Z,87.88
2023-05-03T06:11:52.811Z,86.88
2023-05-03T06:14:21.059Z,83.39
2023-05-03T06:16:57.868Z,80.62
2023-05-03T06:19:26.861Z,78.54
2023-05-03T06:21:58.547Z,76.77
2023-05-03T06:24:31.935Z,75.51
2023-05-03T06:27:00.452Z,72.13
2023-05-03T06:29:29.538Z,70.20
2023-05-03T06:32:00.180Z,68.50
2023-05-03T06:34:29.424Z,67.38
2023-05-03T06:37:14.068Z,66.88
2023-05-03T06:39:47.212Z,64.23
2023-05-03T06:42:16.942Z,63.24
2023-05-03T06:44:50.900Z,63.53
2023-05-03T06:47:25.866Z,59.66
2023-05-03T06:49:54.948Z,57.39
2023-05-03T06:52:22.860Z,57.92
2023-05-03T06:54:51.096Z,58.64
2023-05-03T06:57:28.666Z,56.91
2023-05-03T07:00:05.173Z,55.52
2023-05-03T07:02:35.585Z,54.96
2023-05-03T07:05:10.798Z,53.92
2023-05-03T07:07:47.300Z,54.43
2023-05-03T07:10:15.513Z,54.84
2023-05-03T07:12:42.872Z,52.47
2023-05-03T07:15:20.157Z,52.78
2023-05-03T07:21:21.968Z,53.26
2023-05-03T07:24:04.839Z,52.06
2023-05-03T07:29:15.600Z,52.40
2023-05-03T07:31:48.340Z,52.81
2023-05-03T07:40:38.655Z,53.24
2023-05-03T07:43:08.392Z,53.20
2023-05-03T07:45:39.461Z,52.17
2023-05-03T07:48:17.200Z,52.80
2023-05-03T07:50:53.833Z,52.43
2023-05-03T07:56:04.888Z,49.92
2023-05-03T07:58:43.670Z,49.69
2023-05-03T08:01:13.715Z,50.76
2023-05-03T08:03:49.019Z,49.63
2023-05-03T08:06:19.827Z,48.84
2023-05-03T08:08:56.076Z,48.06
2023-05-03T08:14:23.371Z,46.87
2023-05-03T08:16:59.945Z,47.02
2023-05-03T08:19:39.385Z,47.37
2023-05-03T08:22:14.779Z,47.68
2023-05-03T08:24:50.069Z,49.11
2023-05-03T08:27:20.449Z,49.77
2023-05-03T08:29:51.630Z,49.59
2023-05-03T08:32:24.368Z,48.69
2023-05-03T08:37:45.880Z,49.82
2023-05-03T08:40:17.721Z,50.81
2023-05-03T08:45:29.550Z,51.05
2023-05-03T08:48:05.116Z,49.77
2023-05-03T08:50:35.051Z,47.88
2023-05-03T08:53:06.244Z,47.34
2023-05-03T08:55:49.075Z,46.08
2023-05-03T08:58:18.292Z,45.90
2023-05-03T09:00:47.861Z,44.86
2023-05-03T09:03:15.463Z,44.58
2023-05-03T09:05:52.550Z,45.61
2023-05-03T09:08:32.282Z,44.86
2023-05-03T09:11:16.646Z,45.19
2023-05-03T09:13:47.533Z,44.89
2023-05-03T09:16:26.615Z,46.70
2023-05-03T09:19:02.566Z,48.46
2023-05-03T09:21:31.718Z,48.82
2023-05-03T09:29:43.751Z,51.37
2023-05-03T09:32:17.821Z,50.94
2023-05-03T09:40:32.144Z,51.49
2023-05-03T09:45:52.231Z,51.23
2023-05-03T09:48:24.251Z,50.99
2023-05-03T09:50:51.725Z,50.21
2023-05-03T09:53:22.089Z,50.04
2023-05-03T09:55:56.552Z,51.01
2023-05-03T09:58:35.035Z,50.13
2023-05-03T10:01:05.026Z,49.93
2023-05-03T10:03:52.726Z,49.75
2023-05-03T10:06:35.145Z,49.31
2023-05-03T10:09:46.345Z,48.88
2023-05-03T10:12:20.227Z,47.37
2023-05-03T10:14:56.770Z,46.63
2023-05-03T10:20:46.479Z,47.30
2023-05-03T10:23:26.570Z,46.65
2023-05-03T10:26:13.790Z,44.63
2023-05-03T10:28:41.281Z,44.48
2023-05-03T10:34:33.484Z,47.00
2023-05-03T10:37:13.728Z,46.01
2023-05-03T10:39:45.816Z,44.38
2023-05-03T10:42:16.298Z,44.86
2023-05-03T10:44:50.535Z,44.11
2023-05-03T10:47:19.551Z,44.08
2023-05-03T10:49:55.200Z,42.27
2023-05-03T10:52:59.656Z,43.30
2023-05-03T10:55:27.003Z,43.50
2023-05-03T11:00:46.885Z,43.12
2023-05-03T11:04:04.865Z,41.43
2023-05-03T11:06:41.557Z,41.07
2023-05-03T11:09:19.969Z,40.80
2023-05-03T11:11:48.479Z,41.11
2023-05-03T11:14:18.011Z,41.73
2023-05-03T11:16:50.749Z,42.07
2023-05-03T11:19:17.656Z,41.73
2023-05-03T11:21:48.472Z,42.74
2023-05-03T11:24:19.115Z,42.12
2023-05-03T11:27:09.716Z,40.66
2023-05-03T11:29:59.716Z,41.09
2023-05-03T11:32:27.799Z,41.64
2023-05-03T11:34:54.733Z,40.60
2023-05-03T11:40:34.980Z,39.68
2023-05-03T11:43:02.371Z,39.94
2023-05-03T11:45:35.989Z,40.47
2023-05-03T11:48:03.488Z,41.49
2023-05-03T11:50:59.858Z,40.88
2023-05-03T11:53:28.751Z,41.36
2023-05-03T11:55:58.341Z,41.68
2023-05-03T11:58:29.546Z,41.98
2023-05-03T12:01:05.582Z,41.87
2023-05-03T12:03:51.141Z,43.00
2023-05-03T12:06:21.710Z,42.98
2023-05-03T12:11:44.806Z,41.82
2023-05-03T12:16:56.964Z,41.11
2023-05-03T12:19:31.112Z,41.59
2023-05-03T12:24:40.549Z,41.79
2023-05-03T12:27:08.447Z,41.41
2023-05-03T12:29:40.880Z,42.04
2023-05-03T12:32:11.686Z,41.62
2023-05-03T12:34:41.452Z,40.89
2023-05-03T12:37:11.675Z,41.23
2023-05-03T12:40:16.313Z,40.58
2023-05-03T12:42:53.819Z,41.96
2023-05-03T12:45:21.587Z,42.19
2023-05-03T12:50:38.783Z,37.10
2023-05-03T12:53:11.037Z,36.68
2023-05-03T12:55:52.491Z,36.67
2023-05-03T13:06:31.475Z,37.14
2023-05-03T13:09:21.327Z,39.24
2023-05-03T13:11:52.803Z,38.51
2023-05-03T13:20:07.798Z,37.50
2023-05-03T13:22:42.313Z,37.61
2023-05-03T13:30:47.625Z,36.11
2023-05-03T13:36:01.873Z,37.06
2023-05-03T13:38:33.210Z,37.03
2023-05-03T13:41:35.605Z,38.36
2023-05-03T13:46:56.154Z,37.13
2023-05-03T13:49:26.638Z,36.97
2023-05-03T13:51:53.427Z,38.28
2023-05-03T13:54:20.281Z,37.53
2023-05-03T14:03:01.100Z,37.38
2023-05-03T14:08:34.839Z,38.05
2023-05-03T14:16:55.097Z,37.39
2023-05-03T14:27:39.324Z,37.08
2023-05-03T14:30:11.021Z,36.23
2023-05-03T14:32:39.210Z,35.70
2023-05-03T14:35:15.345Z,35.70
2023-05-03T14:37:45.406Z,36.92
2023-05-03T14:40:32.641Z,36.26
2023-05-03T14:43:04.991Z,35.20
2023-05-03T14:48:24.359Z,35.88
2023-05-03T14:50:57.683Z,35.58
2023-05-03T14:53:32.517Z,35.93
2023-05-03T14:58:53.431Z,37.41
2023-05-03T15:01:22.487Z,36.70
2023-05-03T15:03:57.236Z,36.08
2023-05-03T15:09:38.076Z,36.06
2023-05-03T15:12:23.728Z,35.79
2023-05-03T15:14:52.533Z,34.95
2023-05-03T15:17:45.742Z,35.02
2023-05-03T15:20:18.929Z,34.68
2023-05-03T15:23:05.308Z,36.54
2023-05-03T15:25:35.013Z,36.55
2023-05-03T15:28:11.416Z,36.77
2023-05-03T15:31:04.288Z,37.06
2023-05-03T15:33:43.571Z,37.85
2023-05-03T15:36:15.992Z,36.84
2023-05-03T15:44:41.704Z,38.06
2023-05-03T15:49:59.922Z,38.26
2023-05-03T15:52:29.455Z,37.74
2023-05-03T15:55:02.166Z,38.04
2023-05-03T15:57:51.346Z,38.08
2023-05-03T16:00:22.202Z,38.47
2023-05-03T16:02:50.945Z,38.06
2023-05-03T16:05:20.727Z,38.56
2023-05-03T16:10:37.501Z,38.37
2023-05-03T16:13:12.823Z,37.91
2023-05-03T16:18:33.057Z,37.91
2023-05-03T16:21:06.952Z,37.73
2023-05-03T16:23:42.572Z,37.48
2023-05-03T16:26:16.893Z,37.30
2023-05-03T16:28:53.353Z,36.78
2023-05-03T16:31:24.352Z,37.19
2023-05-03T16:33:54.018Z,36.92
2023-05-03T16:39:04.191Z,37.04
2023-05-03T16:41:31.444Z,35.90
2023-05-03T16:43:58.525Z,36.53
2023-05-03T16:46:25.490Z,36.37
2023-05-03T16:48:54.231Z,36.66
2023-05-03T16:54:09.041Z,36.88
2023-05-03T16:56:43.023Z,36.28
2023-05-03T16:59:38.007Z,36.45
2023-05-03T17:02:08.930Z,36.14
2023-05-03T17:13:05.733Z,37.33
2023-05-03T17:18:45.190Z,37.17
2023-05-03T17:21:32.885Z,36.59
2023-05-03T17:24:06.132Z,37.25
2023-05-03T17:32:15.249Z,37.50
2023-05-03T17:40:46.648Z,37.87
2023-05-03T17:46:11.547Z,38.28
2023-05-03T17:49:00.980Z,38.37
2023-05-03T17:51:33.797Z,38.65
2023-05-03T17:54:06.557Z,38.64
2023-05-03T18:02:18.115Z,38.43
2023-05-03T18:07:37.195Z,38.74
2023-05-03T18:10:18.926Z,38.84
2023-05-03T18:13:13.025Z,39.18
2023-05-03T18:16:17.892Z,39.60
2023-05-03T18:18:52.113Z,39.48
2023-05-03T18:21:22.775Z,40.03
2023-05-03T18:29:20.896Z,40.51
2023-05-03T18:34:38.089Z,41.12
2023-05-03T19:00:07.858Z,43.42
2023-05-03T20:31:57.860Z,54.72
2023-05-03T20:40:12.902Z,56.11
2023-05-03T20:42:44.470Z,56.77
2023-05-03T20:45:18.009Z,57.13
2023-05-03T20:50:32.161Z,58.14
2023-05-03T20:58:31.811Z,60.36
2023-05-03T21:01:06.352Z,61.66
2023-05-03T21:17:49.981Z,66.46
2023-05-03T21:20:20.028Z,67.61
2023-05-03T21:22:55.558Z,67.37
2023-05-03T21:25:32.885Z,68.54
2023-05-03T21:28:02.662Z,68.65
2023-05-03T21:30:30.714Z,69.30
2023-05-03T21:32:59.604Z,69.87
2023-05-03T21:35:27.282Z,69.62
2023-05-03T21:38:05.971Z,70.88
2023-05-03T21:40:35.410Z,71.51
2023-05-03T21:43:11.859Z,71.65
2023-05-03T21:45:50.137Z,72.19
2023-05-03T21:48:31.869Z,72.86
2023-05-03T21:51:25.535Z,72.48
2023-05-03T21:53:58.428Z,73.41
2023-05-03T21:56:25.215Z,73.44
2023-05-03T21:58:51.758Z,73.43
2023-05-03T22:01:20.688Z,73.74
2023-05-03T22:03:48.851Z,74.21
2023-05-03T22:08:58.297Z,74.65
2023-05-03T22:11:24.908Z,74.19
2023-05-03T22:14:08.142Z,73.79
2023-05-03T22:16:40.928Z,73.63
2023-05-03T22:19:12.552Z,74.27
2023-05-03T22:21:40.063Z,74.52
2023-05-03T22:24:12.286Z,74.58
2023-05-03T22:26:38.812Z,74.82
2023-05-03T22:29:05.521Z,74.79
2023-05-03T22:31:35.092Z,75.39
2023-05-03T22:34:08.633Z,75.79
2023-05-03T22:36:39.636Z,75.66
2023-05-03T22:41:47.847Z,76.68
2023-05-03T22:44:18.578Z,76.88
2023-05-03T22:46:48.314Z,77.50
2023-05-03T22:49:20.518Z,77.32
2023-05-03T22:51:52.414Z,77.48
2023-05-03T22:54:22.137Z,76.73
2023-05-03T23:02:49.440Z,76.78
2023-05-03T23:05:19.745Z,75.92
2023-05-03T23:07:48.086Z,75.78
2023-05-03T23:10:17.562Z,76.58
2023-05-03T23:12:55.971Z,76.85
2023-05-03T23:15:24.200Z,77.05
2023-05-03T23:17:51.610Z,77.04
2023-05-03T23:20:20.868Z,75.73
2023-05-03T23:22:51.436Z,75.90
2023-05-03T23:25:25.837Z,75.66
2023-05-03T23:27:53.366Z,75.55
2023-05-03T23:33:08.108Z,76.32
2023-05-03T23:35:36.966Z,76.68
2023-05-03T23:38:03.803Z,76.70
2023-05-03T23:40:30.983Z,76.42
2023-05-03T23:42:58.473Z,77.95
2023-05-03T23:45:27.189Z,78.72
2023-05-03T23:47:56.988Z,78.94
2023-05-03T23:50:23.698Z,79.66
2023-05-03T23:52:50.229Z,80.72
2023-05-03T23:55:19.480Z,80.86
2023-05-03T23:57:47.850Z,81.58
